HST,Max TemperatureF,Mean TemperatureF,Min TemperatureF,Max Dew PointF,MeanDew PointF,Min DewpointF,Max Humidity, Mean Humidity, Min Humidity, Max Sea Level PressureIn, Mean Sea Level PressureIn, Min Sea Level PressureIn, Max VisibilityMiles, Mean VisibilityMiles, Min VisibilityMiles, Max Wind SpeedMPH, Mean Wind SpeedMPH, Max Gust SpeedMPH,PrecipitationIn, CloudCover, Events, WindDirDegrees
2013-3-1,72,68,65,60,57,54,78,67,57,30.17,30.13,30.08,10,10,8,17,11,23,0.00,6,Rain,55
2013-3-2,73,68,64,59,57,52,77,68,46,30.19,30.12,30.07,10,10,10,18,10,32,0.01,6,Rain,67
2013-3-3,73,68,63,57,54,50,70,60,48,30.17,30.13,30.10,10,10,10,15,7,25,0.00,6,,58
2013-3-4,74,68,62,57,54,52,72,62,50,30.18,30.14,30.09,10,10,10,16,5,23,0.00,5,,51
2013-3-5,74,66,57,58,55,52,85,68,47,30.15,30.11,30.06,10,10,10,14,5,21,0.00,3,,45
2013-3-6,77,68,59,62,58,56,90,75,51,30.13,30.08,30.04,10,10,10,15,5,,0.00,2,,66
2013-3-7,76,66,55,63,58,53,92,77,48,30.09,30.04,29.98,10,10,10,10,3,,0.00,4,Rain,320
2013-3-8,77,66,54,63,58,50,94,74,38,30.01,29.95,29.86,10,10,10,12,3,18,0.00,2,,196
2013-3-9,76,71,65,65,63,60,94,82,57,29.92,29.88,29.84,10,8,1,12,6,18,0.31,5,Rain,175
2013-3-10,69,66,62,67,64,60,94,92,83,30.01,29.92,29.86,10,7,1,14,3,,0.61,7,Rain,78
2013-3-11,73,66,59,63,60,57,93,81,65,30.05,30.00,29.95,10,10,10,13,5,,0.00,3,,326
2013-3-12,74,67,60,62,58,54,87,73,50,30.08,30.02,29.96,10,10,10,15,7,,0.00,2,,328
2013-3-13,74,66,59,60,58,56,90,75,57,30.08,30.03,29.98,10,10,10,13,5,,0.00,3,,339
2013-3-14,73,67,60,61,58,56,88,75,56,30.07,30.01,29.96,10,10,10,8,3,,0.00,4,,341
2013-3-15,72,66,59,61,58,55,91,76,59,29.97,29.93,29.88,10,10,5,16,6,23,0.02,4,Rain,307
2013-3-16,71,66,62,59,55,52,85,72,53,30.02,29.96,29.90,10,10,10,13,8,18,0.00,2,,337
2013-3-17,72,65,58,57,55,50,88,73,46,30.04,29.98,29.92,10,10,10,13,6,21,0.00,3,Rain,335
2013-3-18,70,64,57,57,55,52,88,74,60,30.02,29.98,29.92,10,10,10,9,5,,0.00,4,,330
2013-3-19,75,66,56,63,59,54,93,79,57,30.01,29.97,29.92,10,10,4,12,3,17,0.02,5,Rain,195
2013-3-20,78,68,57,66,62,56,95,79,52,30.05,30.00,29.95,10,10,10,12,2,,0.01,2,,151
2013-3-21,78,68,59,67,64,57,91,79,61,30.04,30.00,29.96,10,10,10,10,3,17,0.00,3,,163
2013-3-22,75,70,64,67,64,63,94,84,68,30.02,29.97,29.90,10,10,5,10,5,,0.09,7,Rain,289
2013-3-23,73,68,64,65,63,61,100,86,66,30.03,29.97,29.93,10,10,9,14,8,20,0.06,6,Rain,323
2013-3-24,69,66,61,66,64,60,94,90,83,30.05,29.97,29.91,10,10,8,9,5,,0.20,7,Rain,318
2013-3-25,75,68,61,68,65,59,94,84,76,30.01,29.98,29.93,10,9,1,8,3,,0.15,6,Rain,37
2013-3-26,77,69,61,68,64,60,94,82,65,30.03,29.99,29.94,10,8,2,8,3,,0.30,4,Rain,327
2013-3-27,70,67,64,68,65,62,94,90,82,30.04,29.99,29.94,10,9,2,15,7,20,0.24,7,Rain,344
2013-3-28,76,70,64,63,62,60,92,81,59,30.05,30.01,29.95,10,10,9,15,4,21,0.01,4,Rain,359
2013-3-29,75,69,62,64,62,59,94,84,63,30.05,30.02,29.97,10,10,10,20,6,21,0.00,5,Rain,5
2013-3-30,75,68,61,64,61,57,91,77,57,30.05,30.00,29.96,10,10,10,16,7,25,0.00,4,,339
2013-3-31,70,66,61,54,51,50,75,61,51,30.05,30.01,29.96,10,10,10,17,9,24,0.00,3,,341